createdAt,value
2017-08-04T00:02:21.041Z,22.60
2017-08-04T00:04:48.609Z,22.70
2017-08-04T00:07:16.186Z,22.80
2017-08-04T00:09:43.755Z,22.80
2017-08-04T00:12:11.416Z,22.70
2017-08-04T00:14:39.057Z,22.90
2017-08-04T00:17:06.669Z,22.90
2017-08-04T00:19:34.332Z,22.90
2017-08-04T00:22:01.962Z,23.20
2017-08-04T00:24:29.671Z,23.20
2017-08-04T00:29:31.123Z,23.20
2017-08-04T00:31:58.748Z,23.30
2017-08-04T00:34:26.392Z,23.30
2017-08-04T00:36:54.005Z,23.40
2017-08-04T00:39:21.678Z,23.50
2017-08-04T00:41:49.300Z,23.40
2017-08-04T00:44:16.937Z,23.50
2017-08-04T00:46:44.537Z,23.60
2017-08-04T00:49:12.210Z,23.70
2017-08-04T00:51:39.822Z,23.80
2017-08-04T00:54:07.467Z,23.80
2017-08-04T00:56:35.057Z,23.80
2017-08-04T00:59:02.663Z,23.80
2017-08-04T01:01:30.288Z,23.80
2017-08-04T01:03:57.923Z,23.70
2017-08-04T01:06:25.551Z,23.80
2017-08-04T01:08:54.804Z,23.90
2017-08-04T01:11:22.383Z,23.90
2017-08-04T01:13:50.009Z,23.90
2017-08-04T01:16:17.671Z,23.90
2017-08-04T01:18:45.324Z,23.90
2017-08-04T01:21:12.920Z,23.90
2017-08-04T01:23:40.622Z,23.90
2017-08-04T01:26:08.203Z,23.80
2017-08-04T01:28:36.713Z,23.80
2017-08-04T01:31:04.414Z,23.90
2017-08-04T01:33:31.957Z,23.80
2017-08-04T01:35:59.532Z,23.80
2017-08-04T01:38:27.163Z,23.90
2017-08-04T01:40:54.727Z,23.90
2017-08-04T01:43:22.316Z,23.90
2017-08-04T01:45:50.016Z,23.80
2017-08-04T01:48:17.626Z,23.80
2017-08-04T01:50:45.186Z,23.80
2017-08-04T01:53:12.707Z,23.70
2017-08-04T01:55:40.271Z,23.80
2017-08-04T01:58:07.881Z,23.70
2017-08-04T02:00:35.536Z,23.60
2017-08-04T02:03:03.064Z,23.70
2017-08-04T02:05:30.596Z,23.70
2017-08-04T02:07:58.272Z,23.80
2017-08-04T02:10:25.880Z,23.80
2017-08-04T02:12:53.741Z,23.90
2017-08-04T02:15:21.260Z,23.90
2017-08-04T02:17:48.820Z,23.90
2017-08-04T02:20:16.350Z,24.00
2017-08-04T02:22:43.922Z,24.00
2017-08-04T02:25:11.487Z,23.90
2017-08-04T02:27:39.064Z,23.90
2017-08-04T02:30:06.594Z,23.90
2017-08-04T02:32:34.160Z,23.90
2017-08-04T02:35:01.702Z,24.00
2017-08-04T02:37:29.346Z,23.90
2017-08-04T02:39:56.899Z,23.90
2017-08-04T02:42:24.558Z,24.00
2017-08-04T02:44:52.084Z,24.00
2017-08-04T02:47:19.675Z,24.00
2017-08-04T02:49:47.252Z,24.00
2017-08-04T02:52:14.774Z,24.10
2017-08-04T02:54:42.339Z,24.10
2017-08-04T02:57:09.886Z,24.00
2017-08-04T02:59:37.467Z,24.10
2017-08-04T03:02:05.070Z,24.00
2017-08-04T03:04:32.623Z,24.00
2017-08-04T03:07:00.160Z,24.00
2017-08-04T03:09:27.876Z,23.90
2017-08-04T03:11:55.478Z,24.00
2017-08-04T03:14:23.019Z,24.00
2017-08-04T03:16:50.575Z,24.00
2017-08-04T03:19:18.105Z,24.00
2017-08-04T03:21:45.643Z,24.00
2017-08-04T03:24:13.182Z,24.00
2017-08-04T03:26:40.847Z,24.00
2017-08-04T03:29:08.444Z,23.90
2017-08-04T03:31:36.091Z,23.90
2017-08-04T03:34:03.716Z,24.00
2017-08-04T03:36:31.295Z,23.90
2017-08-04T03:38:59.650Z,23.90
2017-08-04T03:41:27.358Z,24.00
2017-08-04T03:43:54.967Z,23.90
2017-08-04T03:46:22.575Z,23.90
2017-08-04T03:48:50.957Z,24.00
2017-08-04T03:51:19.083Z,23.90
2017-08-04T03:53:46.898Z,23.90
2017-08-04T03:56:14.509Z,23.90
2017-08-04T03:58:42.155Z,23.90
2017-08-04T04:01:09.758Z,23.80
2017-08-04T04:03:37.404Z,23.90
2017-08-04T04:06:05.018Z,23.90
2017-08-04T04:08:32.669Z,23.70
2017-08-04T04:11:00.324Z,23.70
2017-08-04T04:13:27.971Z,23.70
2017-08-04T04:15:55.840Z,23.70
2017-08-04T04:18:24.734Z,23.60
2017-08-04T04:20:53.332Z,23.60
2017-08-04T04:23:20.968Z,23.80
2017-08-04T04:25:48.614Z,23.70
2017-08-04T04:28:16.137Z,23.80
2017-08-04T04:30:43.757Z,23.80
2017-08-04T04:33:11.348Z,23.80
2017-08-04T04:35:39.016Z,23.80
2017-08-04T04:38:06.619Z,23.60
2017-08-04T04:40:34.261Z,23.60
2017-08-04T04:43:01.889Z,23.70
2017-08-04T04:45:29.537Z,23.70
2017-08-04T04:47:57.179Z,23.60
2017-08-04T04:50:24.765Z,23.70
2017-08-04T04:52:53.325Z,23.70
2017-08-04T04:55:20.919Z,23.50
2017-08-04T04:57:48.546Z,23.60
2017-08-04T05:00:16.132Z,23.70
2017-08-04T05:02:43.763Z,23.70
2017-08-04T05:05:11.297Z,23.70
2017-08-04T05:07:38.882Z,23.70
2017-08-04T05:10:06.425Z,23.80
2017-08-04T05:12:34.041Z,23.80
2017-08-04T05:15:01.666Z,23.80
2017-08-04T05:17:29.274Z,23.90
2017-08-04T05:19:56.922Z,23.90
2017-08-04T05:22:24.542Z,23.90
2017-08-04T05:24:52.176Z,24.00
2017-08-04T05:27:19.797Z,24.00
2017-08-04T05:29:47.434Z,24.10
2017-08-04T05:32:15.023Z,24.10
2017-08-04T05:34:42.664Z,24.10
2017-08-04T05:37:10.264Z,24.20
2017-08-04T05:39:37.910Z,24.20
2017-08-04T05:42:05.516Z,24.30
2017-08-04T05:44:33.099Z,24.40
2017-08-04T05:47:00.761Z,24.40
2017-08-04T05:49:28.315Z,24.30
2017-08-04T05:51:55.890Z,24.30
2017-08-04T05:54:23.443Z,24.40
2017-08-04T05:56:51.076Z,24.40
2017-08-04T05:59:18.672Z,24.40
2017-08-04T06:01:46.301Z,24.50
2017-08-04T06:04:13.901Z,24.50
2017-08-04T06:06:41.516Z,24.50
2017-08-04T06:09:09.085Z,24.60
2017-08-04T06:11:36.691Z,24.70
2017-08-04T06:14:04.306Z,24.60
2017-08-04T06:16:31.944Z,24.70
2017-08-04T06:18:59.532Z,24.70
2017-08-04T06:21:27.165Z,24.60
2017-08-04T06:23:54.687Z,24.70
2017-08-04T06:26:22.283Z,24.80
2017-08-04T06:28:49.826Z,24.90
2017-08-04T06:31:17.428Z,25.00
2017-08-04T06:33:45.048Z,25.20
2017-08-04T06:36:12.624Z,25.30
2017-08-04T06:38:40.236Z,25.50
2017-08-04T06:41:07.770Z,25.40
2017-08-04T06:43:35.384Z,25.40
2017-08-04T06:46:02.995Z,25.30
2017-08-04T06:48:42.187Z,25.30
2017-08-04T06:51:21.568Z,25.30
2017-08-04T06:54:00.739Z,25.10
2017-08-04T06:56:28.356Z,25.00
2017-08-04T06:58:55.953Z,25.10
2017-08-04T07:01:23.536Z,25.20
2017-08-04T07:03:51.181Z,25.10
2017-08-04T07:06:18.804Z,25.20
2017-08-04T07:08:46.416Z,25.30
2017-08-04T07:11:14.020Z,25.50
2017-08-04T07:13:41.655Z,25.60
2017-08-04T07:16:09.183Z,25.60
2017-08-04T07:18:36.817Z,25.70
2017-08-04T07:21:04.391Z,25.80
2017-08-04T07:23:31.940Z,25.80
2017-08-04T07:25:59.582Z,26.00
2017-08-04T07:28:27.177Z,26.00
2017-08-04T07:30:54.916Z,26.10
2017-08-04T07:33:22.537Z,26.30
2017-08-04T07:35:50.147Z,26.20
2017-08-04T07:38:17.749Z,26.20
2017-08-04T07:40:45.316Z,26.00
2017-08-04T07:43:12.966Z,25.70
2017-08-04T07:45:40.597Z,25.60
2017-08-04T07:48:08.178Z,25.50
2017-08-04T07:50:35.763Z,25.40
2017-08-04T07:53:03.388Z,25.40
2017-08-04T07:55:31.104Z,25.30
2017-08-04T07:57:58.658Z,25.20
2017-08-04T08:00:26.180Z,25.20
2017-08-04T08:02:53.742Z,25.30
2017-08-04T08:05:21.273Z,25.30
2017-08-04T08:07:48.841Z,25.60
2017-08-04T08:10:16.379Z,25.90
2017-08-04T08:12:43.947Z,26.20
2017-08-04T08:15:11.474Z,26.40
2017-08-04T08:17:39.039Z,26.60
2017-08-04T08:20:06.568Z,26.80
2017-08-04T08:22:34.189Z,27.00
2017-08-04T08:25:01.752Z,26.80
2017-08-04T08:27:29.526Z,26.90
2017-08-04T08:29:57.085Z,27.00
2017-08-04T08:32:24.724Z,27.20
2017-08-04T08:34:52.293Z,27.20
2017-08-04T08:37:19.906Z,27.30
2017-08-04T08:39:47.791Z,27.40
2017-08-04T08:42:15.454Z,27.20
2017-08-04T08:44:43.132Z,27.30
2017-08-04T08:47:11.704Z,27.30
2017-08-04T08:49:39.634Z,27.30
2017-08-04T08:52:07.885Z,26.90
2017-08-04T08:54:35.907Z,27.00
2017-08-04T08:57:04.215Z,27.10
2017-08-04T08:59:32.172Z,27.30
2017-08-04T09:01:59.957Z,27.30
2017-08-04T09:04:28.244Z,27.10
2017-08-04T09:06:55.945Z,27.50
2017-08-04T09:09:23.817Z,27.50
2017-08-04T09:11:51.531Z,27.30
2017-08-04T09:14:19.219Z,27.30
2017-08-04T09:16:46.977Z,27.50
2017-08-04T09:19:15.285Z,27.50
2017-08-04T09:21:42.947Z,27.40
2017-08-04T09:24:10.957Z,27.30
2017-08-04T09:26:38.560Z,27.30
2017-08-04T09:29:06.427Z,27.10
2017-08-04T09:31:34.079Z,27.20
2017-08-04T09:34:02.102Z,27.20
2017-08-04T09:36:29.848Z,27.10
2017-08-04T09:38:57.674Z,27.30
2017-08-04T09:41:25.302Z,27.40
2017-08-04T09:43:52.918Z,27.50
2017-08-04T09:46:20.490Z,27.20
2017-08-04T09:48:48.172Z,27.10
2017-08-04T09:51:15.798Z,27.30
2017-08-04T09:53:43.348Z,27.40
2017-08-04T09:56:10.930Z,27.50
2017-08-04T09:58:38.536Z,27.60
2017-08-04T10:01:06.249Z,27.60
2017-08-04T10:03:33.784Z,27.60
2017-08-04T10:06:01.355Z,27.50
2017-08-04T10:08:28.883Z,27.60
2017-08-04T10:10:56.455Z,27.50
2017-08-04T10:13:23.982Z,27.70
2017-08-04T10:15:51.539Z,27.70
2017-08-04T10:18:19.067Z,27.30
2017-08-04T10:20:46.630Z,27.50
2017-08-04T10:23:14.160Z,27.60
2017-08-04T10:25:41.731Z,27.70
2017-08-04T10:28:09.251Z,27.80
2017-08-04T10:30:36.771Z,28.00
2017-08-04T10:33:04.327Z,28.00
2017-08-04T10:35:31.863Z,28.10
2017-08-04T10:37:59.431Z,28.00
2017-08-04T10:40:26.987Z,28.00
2017-08-04T10:42:54.551Z,28.00
2017-08-04T10:45:22.149Z,28.40
2017-08-04T10:47:49.710Z,28.60
2017-08-04T10:50:17.242Z,28.90
2017-08-04T10:52:44.811Z,28.90
2017-08-04T10:55:12.335Z,28.60
2017-08-04T10:57:39.902Z,28.50
2017-08-04T11:00:07.431Z,28.30
2017-08-04T11:02:34.991Z,28.00
2017-08-04T11:05:02.520Z,27.90
2017-08-04T11:07:30.091Z,27.80
2017-08-04T11:09:57.622Z,28.00
2017-08-04T11:12:25.197Z,28.10
2017-08-04T11:14:52.964Z,28.10
2017-08-04T11:17:20.527Z,27.80
2017-08-04T11:19:48.047Z,27.50
2017-08-04T11:22:15.615Z,27.60
2017-08-04T11:24:43.176Z,27.50
2017-08-04T11:27:10.699Z,27.60
2017-08-04T11:29:38.268Z,27.60
2017-08-04T11:32:05.795Z,27.40
2017-08-04T11:34:33.355Z,27.50
2017-08-04T11:37:00.893Z,27.60
2017-08-04T11:39:28.475Z,27.50
2017-08-04T11:41:56.015Z,27.50
2017-08-04T11:44:23.587Z,27.40
2017-08-04T11:46:51.126Z,27.50
2017-08-04T11:49:18.690Z,27.60
2017-08-04T11:51:46.226Z,27.60
2017-08-04T11:54:13.835Z,27.70
2017-08-04T11:56:41.359Z,27.80
2017-08-04T11:59:08.919Z,27.90
2017-08-04T12:01:36.442Z,27.70
2017-08-04T12:04:04.032Z,27.80
2017-08-04T12:06:31.572Z,28.00
2017-08-04T12:08:59.203Z,28.10
2017-08-04T12:11:26.780Z,28.50
2017-08-04T12:13:54.307Z,28.50
2017-08-04T12:16:21.879Z,28.70
2017-08-04T12:18:49.404Z,29.10
2017-08-04T12:21:16.970Z,29.20
2017-08-04T12:23:44.495Z,29.20
2017-08-04T12:26:12.051Z,29.40
2017-08-04T12:28:39.578Z,29.60
2017-08-04T12:31:07.407Z,29.70
2017-08-04T12:33:34.936Z,29.70
2017-08-04T12:36:02.507Z,29.60
2017-08-04T12:38:30.062Z,29.80
2017-08-04T12:40:57.642Z,30.00
2017-08-04T12:43:25.177Z,29.80
2017-08-04T12:45:52.747Z,29.90
2017-08-04T12:48:20.271Z,29.80
2017-08-04T12:50:47.843Z,30.00
2017-08-04T12:53:15.372Z,30.20
2017-08-04T12:55:42.929Z,30.50
2017-08-04T12:58:10.461Z,30.20
2017-08-04T13:00:38.025Z,30.10
2017-08-04T13:03:05.560Z,30.10
2017-08-04T13:05:33.123Z,30.00
2017-08-04T13:08:00.655Z,29.80
2017-08-04T13:10:28.250Z,29.80
2017-08-04T13:12:55.808Z,29.80
2017-08-04T13:15:23.371Z,29.70
2017-08-04T13:17:50.907Z,29.60
2017-08-04T13:20:18.480Z,29.50
2017-08-04T13:22:46.008Z,29.50
2017-08-04T13:25:13.567Z,29.40
2017-08-04T13:27:41.092Z,29.40
2017-08-04T13:30:08.674Z,29.60
2017-08-04T13:32:36.200Z,29.80
2017-08-04T13:35:03.727Z,29.80
2017-08-04T13:37:31.293Z,29.80
2017-08-04T13:39:58.832Z,29.80
2017-08-04T13:42:26.407Z,29.80
2017-08-04T13:44:53.939Z,29.60
2017-08-04T13:47:21.494Z,29.80
2017-08-04T13:49:49.031Z,29.70
2017-08-04T13:52:16.595Z,29.60
2017-08-04T13:54:44.127Z,29.50
2017-08-04T13:57:11.695Z,29.40
2017-08-04T13:59:39.219Z,29.40
2017-08-04T14:02:06.790Z,29.40
2017-08-04T14:04:34.315Z,29.40
2017-08-04T14:07:01.911Z,29.50
2017-08-04T14:09:29.441Z,29.40
2017-08-04T14:11:56.978Z,29.30
2017-08-04T14:14:24.547Z,28.50
2017-08-04T14:16:52.080Z,28.00
2017-08-04T14:19:19.640Z,27.20
2017-08-04T14:21:47.163Z,26.50
2017-08-04T14:24:14.719Z,25.70
2017-08-04T14:26:42.257Z,25.30
2017-08-04T14:29:09.815Z,24.90
2017-08-04T14:31:37.335Z,24.60
2017-08-04T14:34:04.899Z,24.50
2017-08-04T14:36:32.436Z,24.60
2017-08-04T14:38:59.970Z,24.60
2017-08-04T14:41:27.552Z,24.60
2017-08-04T14:43:55.080Z,24.70
2017-08-04T14:46:22.646Z,24.90
2017-08-04T14:48:50.182Z,25.20
2017-08-04T14:51:18.574Z,25.40
2017-08-04T14:53:46.143Z,25.40
2017-08-04T14:56:13.711Z,25.10
2017-08-04T14:58:41.237Z,24.90
2017-08-04T15:01:08.809Z,24.60
2017-08-04T15:03:36.335Z,24.30
2017-08-04T15:06:03.907Z,24.20
2017-08-04T15:08:31.450Z,24.10
2017-08-04T15:10:59.018Z,23.90
2017-08-04T15:13:26.558Z,23.80
2017-08-04T15:15:54.131Z,24.00
2017-08-04T15:18:21.654Z,24.10
2017-08-04T15:20:49.226Z,24.40
2017-08-04T15:23:16.763Z,24.70
2017-08-04T15:25:44.322Z,25.00
2017-08-04T15:28:11.847Z,25.30
2017-08-04T15:30:39.403Z,25.40
2017-08-04T15:33:06.944Z,25.50
2017-08-04T15:35:34.515Z,25.50
2017-08-04T15:38:02.046Z,25.50
2017-08-04T15:40:29.606Z,25.40
2017-08-04T15:42:57.168Z,25.30
2017-08-04T15:45:24.762Z,25.20
2017-08-04T15:47:55.040Z,25.00
2017-08-04T15:50:22.788Z,25.00
2017-08-04T15:52:50.314Z,24.90
2017-08-04T15:55:17.850Z,24.90
2017-08-04T15:57:45.425Z,24.90
2017-08-04T16:00:12.959Z,24.80
2017-08-04T16:02:40.523Z,24.70
2017-08-04T16:05:08.060Z,24.70
2017-08-04T16:07:35.627Z,24.60
2017-08-04T16:10:03.159Z,24.50
2017-08-04T16:12:30.742Z,24.50
2017-08-04T16:14:58.299Z,24.50
2017-08-04T16:17:25.866Z,24.30
2017-08-04T16:19:54.220Z,24.20
2017-08-04T16:22:21.781Z,24.20
2017-08-04T16:24:49.311Z,24.20
2017-08-04T16:27:16.912Z,24.10
2017-08-04T16:29:44.435Z,24.10
2017-08-04T16:32:11.963Z,24.10
2017-08-04T16:34:39.544Z,24.10
2017-08-04T16:37:07.151Z,24.20
2017-08-04T16:39:34.722Z,24.30
2017-08-04T16:42:02.263Z,24.50
2017-08-04T16:44:29.875Z,24.70
2017-08-04T16:46:57.423Z,24.80
2017-08-04T16:49:24.988Z,24.80
2017-08-04T16:51:52.528Z,24.90
2017-08-04T16:54:20.095Z,24.90
2017-08-04T16:56:47.631Z,24.80
2017-08-04T16:59:15.197Z,24.80
2017-08-04T17:01:42.721Z,24.70
2017-08-04T17:04:10.281Z,24.80
2017-08-04T17:06:37.811Z,24.90
2017-08-04T17:09:05.376Z,25.00
2017-08-04T17:11:32.927Z,24.90
2017-08-04T17:14:00.504Z,24.70
2017-08-04T17:16:28.040Z,24.60
2017-08-04T17:18:55.612Z,24.40
2017-08-04T17:21:23.134Z,24.30
2017-08-04T17:23:50.695Z,24.20
2017-08-04T17:26:18.271Z,24.20
2017-08-04T17:28:45.803Z,24.20
2017-08-04T17:31:13.363Z,24.10
2017-08-04T17:33:41.926Z,24.00
2017-08-04T17:36:10.652Z,24.00
2017-08-04T17:38:38.182Z,24.10
2017-08-04T17:41:05.751Z,24.10
2017-08-04T17:43:33.283Z,24.00
2017-08-04T17:46:00.857Z,23.90
2017-08-04T17:48:28.427Z,23.90
2017-08-04T17:50:56.000Z,23.90
2017-08-04T17:53:23.547Z,23.90
2017-08-04T17:55:52.065Z,23.80
2017-08-04T17:58:31.180Z,23.70
2017-08-04T18:00:58.752Z,23.60
2017-08-04T18:03:26.298Z,23.50
2017-08-04T18:05:53.871Z,23.30
2017-08-04T18:08:21.426Z,23.20
2017-08-04T18:10:49.000Z,23.10
2017-08-04T18:13:16.569Z,23.10
2017-08-04T18:15:44.152Z,23.20
2017-08-04T18:18:11.725Z,23.00
2017-08-04T18:20:39.324Z,22.90
2017-08-04T18:23:06.987Z,22.80
2017-08-04T18:25:34.528Z,22.80
2017-08-04T18:28:02.109Z,22.70
2017-08-04T18:30:29.680Z,22.60
2017-08-04T18:32:57.208Z,22.60
2017-08-04T18:35:24.776Z,22.50
2017-08-04T18:37:52.370Z,22.50
2017-08-04T18:40:19.947Z,22.50
2017-08-04T18:42:47.470Z,22.50
2017-08-04T18:45:14.995Z,22.50
2017-08-04T18:47:42.649Z,22.50
2017-08-04T18:50:10.215Z,22.40
2017-08-04T18:52:37.755Z,22.30
2017-08-04T18:55:05.283Z,22.40
2017-08-04T18:57:32.859Z,22.20
2017-08-04T19:00:00.391Z,22.20
2017-08-04T19:02:27.977Z,22.20
2017-08-04T19:22:15.167Z,21.80
2017-08-04T19:42:02.067Z,21.70
2017-08-04T19:44:29.655Z,21.60
2017-08-04T19:46:57.252Z,21.70
2017-08-04T19:49:24.800Z,21.70
2017-08-04T19:54:45.532Z,21.50
2017-08-04T19:57:13.151Z,21.50
2017-08-04T19:59:40.678Z,21.50
2017-08-04T20:02:08.238Z,21.50
2017-08-04T20:04:35.778Z,21.30
2017-08-04T20:07:03.368Z,21.20
2017-08-04T20:09:30.903Z,21.20
2017-08-04T20:11:58.436Z,21.10
2017-08-04T20:14:26.844Z,20.90
2017-08-04T20:16:54.390Z,20.80
2017-08-04T20:19:21.946Z,20.80
2017-08-04T20:21:49.530Z,20.70
2017-08-04T20:24:17.053Z,20.70
2017-08-04T20:26:44.588Z,20.60
2017-08-04T20:29:12.144Z,20.70
2017-08-04T20:31:39.687Z,20.50
2017-08-04T20:34:07.249Z,20.50
2017-08-04T20:36:34.780Z,20.40
2017-08-04T20:39:02.406Z,20.30
2017-08-04T20:41:29.945Z,20.30
2017-08-04T20:43:57.514Z,20.20
2017-08-04T20:46:25.039Z,20.10
2017-08-04T20:48:52.603Z,20.00
2017-08-04T20:51:20.136Z,20.00
2017-08-04T20:53:47.691Z,19.90
2017-08-04T20:56:15.893Z,19.90
2017-08-04T20:58:43.452Z,19.90
2017-08-04T21:01:10.984Z,19.80
2017-08-04T21:03:38.552Z,19.80
2017-08-04T21:06:06.105Z,19.80
2017-08-04T21:08:33.761Z,19.80
2017-08-04T21:11:01.432Z,19.80
2017-08-04T21:13:29.097Z,19.80
2017-08-04T21:15:56.691Z,19.80
2017-08-04T21:18:24.251Z,19.70
2017-08-04T21:20:51.775Z,19.70
2017-08-04T21:23:19.341Z,19.80
2017-08-04T21:25:46.871Z,19.70
2017-08-04T21:28:14.433Z,19.80
2017-08-04T21:30:41.986Z,19.70
2017-08-04T21:33:09.551Z,19.70
2017-08-04T21:35:37.074Z,19.60
2017-08-04T21:38:04.640Z,19.50
2017-08-04T21:40:32.169Z,19.40
2017-08-04T21:42:59.829Z,19.40
2017-08-04T21:45:27.452Z,19.30
2017-08-04T21:47:55.114Z,19.30
2017-08-04T21:50:22.709Z,19.20
2017-08-04T21:52:50.321Z,19.20
2017-08-04T21:55:17.984Z,19.20
2017-08-04T21:57:45.658Z,19.20
2017-08-04T22:00:13.211Z,19.10
2017-08-04T22:02:40.825Z,19.10
2017-08-04T22:05:08.384Z,19.10
2017-08-04T22:07:35.951Z,19.10
2017-08-04T22:10:03.486Z,19.10
2017-08-04T22:12:31.695Z,19.10
2017-08-04T22:14:59.327Z,19.10
2017-08-04T22:17:26.968Z,19.10
2017-08-04T22:19:54.666Z,19.10
2017-08-04T22:22:22.227Z,19.20
2017-08-04T22:24:51.090Z,19.20
2017-08-04T22:27:19.877Z,19.20
2017-08-04T22:29:53.719Z,19.10
2017-08-04T22:35:01.094Z,19.00
2017-08-04T22:37:32.374Z,19.00
2017-08-04T22:40:04.568Z,19.00
2017-08-04T22:42:33.816Z,19.10
2017-08-04T22:45:03.472Z,19.10
2017-08-04T22:47:32.825Z,19.00
2017-08-04T22:50:04.000Z,19.00
2017-08-04T22:52:32.535Z,19.00
2017-08-04T22:55:03.344Z,19.00
2017-08-04T22:57:37.103Z,19.10
2017-08-04T23:00:06.983Z,19.10
2017-08-04T23:02:36.570Z,19.00
2017-08-04T23:05:04.348Z,19.10
2017-08-04T23:07:37.821Z,19.00
2017-08-04T23:10:14.929Z,19.00
2017-08-04T23:12:46.323Z,19.10
2017-08-04T23:15:14.317Z,19.00
2017-08-04T23:17:43.504Z,19.10
2017-08-04T23:20:16.684Z,19.10
2017-08-04T23:22:48.173Z,19.10
2017-08-04T23:25:22.642Z,18.90
2017-08-04T23:27:50.438Z,18.80
2017-08-04T23:30:23.705Z,18.90
2017-08-04T23:32:51.804Z,18.90
2017-08-04T23:35:19.480Z,18.90
2017-08-04T23:37:47.113Z,18.80
2017-08-04T23:40:14.704Z,18.70
2017-08-04T23:42:42.340Z,18.70
2017-08-04T23:45:09.995Z,18.60
2017-08-04T23:47:37.657Z,18.70
2017-08-04T23:50:05.301Z,18.60
2017-08-04T23:52:32.981Z,18.60
2017-08-04T23:55:00.683Z,18.70
2017-08-04T23:57:28.443Z,18.50
2017-08-04T23:59:56.023Z,18.60
